createdAt,value
2022-11-10T00:00:45.092Z,69.99
2022-11-10T00:02:10.559Z,70.04
2022-11-10T00:03:32.584Z,70.07
2022-11-10T00:04:53.548Z,70.08
2022-11-10T00:07:51.862Z,70.15
2022-11-10T00:09:15.858Z,70.11
2022-11-10T00:11:03.539Z,70.51
2022-11-10T00:12:24.120Z,70.51
2022-11-10T00:14:08.128Z,70.24
2022-11-10T00:15:50.753Z,69.72
2022-11-10T00:17:14.003Z,69.47
2022-11-10T00:18:37.758Z,69.28
2022-11-10T00:21:40.824Z,69.59
2022-11-10T00:23:04.895Z,70.08
2022-11-10T00:24:27.270Z,70.28
2022-11-10T00:25:56.091Z,70.31
2022-11-10T00:27:17.942Z,70.61
2022-11-10T00:28:40.614Z,70.59
2022-11-10T00:30:02.866Z,70.43
2022-11-10T00:31:26.703Z,70.25
2022-11-10T00:32:50.236Z,69.97
2022-11-10T00:34:17.903Z,69.80
2022-11-10T00:35:49.170Z,69.59
2022-11-10T00:37:11.289Z,69.26
2022-11-10T00:38:45.349Z,69.35
2022-11-10T00:40:07.584Z,69.09
2022-11-10T00:41:30.064Z,69.15
2022-11-10T00:42:54.506Z,69.10
2022-11-10T00:45:53.538Z,69.46
2022-11-10T00:47:14.836Z,69.60
2022-11-10T00:48:35.570Z,69.37
2022-11-10T00:49:56.951Z,69.40
2022-11-10T00:51:26.745Z,69.69
2022-11-10T00:52:50.072Z,69.51
2022-11-10T00:54:12.495Z,69.77
2022-11-10T00:55:42.765Z,69.82
2022-11-10T00:57:14.383Z,69.90
2022-11-10T00:58:50.488Z,70.14
2022-11-10T01:00:16.232Z,70.60
2022-11-10T01:01:41.234Z,70.30
2022-11-10T01:03:03.263Z,70.25
2022-11-10T01:04:29.414Z,70.23
2022-11-10T01:05:51.231Z,71.60
2022-11-10T01:07:13.207Z,71.29
2022-11-10T01:08:38.860Z,70.84
2022-11-10T01:10:02.445Z,70.99
2022-11-10T01:11:29.537Z,71.65
2022-11-10T01:12:53.268Z,71.76
2022-11-10T01:14:16.741Z,71.59
2022-11-10T01:15:41.785Z,71.52
2022-11-10T01:17:04.099Z,71.79
2022-11-10T01:18:30.939Z,72.00
2022-11-10T01:19:55.116Z,71.82
2022-11-10T01:21:17.041Z,71.86
2022-11-10T01:22:41.108Z,71.94
2022-11-10T01:27:14.345Z,71.61
2022-11-10T01:28:42.055Z,71.75
2022-11-10T01:30:11.078Z,71.88
2022-11-10T01:31:32.677Z,71.61
2022-11-10T01:32:56.269Z,71.91
2022-11-10T01:34:19.845Z,72.09
2022-11-10T01:35:47.875Z,72.27
2022-11-10T01:38:49.957Z,73.03
2022-11-10T01:40:17.721Z,72.72
2022-11-10T01:42:07.709Z,72.69
2022-11-10T01:43:28.694Z,72.81
2022-11-10T01:45:12.116Z,72.77
2022-11-10T01:46:35.177Z,72.81
2022-11-10T01:47:59.566Z,72.75
2022-11-10T01:51:09.275Z,72.57
2022-11-10T01:52:44.926Z,72.67
2022-11-10T01:54:16.148Z,72.96
2022-11-10T01:55:41.390Z,73.47
2022-11-10T01:57:08.289Z,73.49
2022-11-10T01:58:32.176Z,73.57
2022-11-10T02:00:06.504Z,73.13
2022-11-10T02:01:29.718Z,73.03
2022-11-10T02:03:08.422Z,72.75
2022-11-10T02:04:35.681Z,72.76
2022-11-10T02:06:00.916Z,72.43
2022-11-10T02:09:03.396Z,72.18
2022-11-10T02:10:30.119Z,72.19
2022-11-10T02:11:54.617Z,72.01
2022-11-10T02:13:16.157Z,72.36
2022-11-10T02:14:44.221Z,72.34
2022-11-10T02:16:12.158Z,72.80
2022-11-10T02:17:38.146Z,72.88
2022-11-10T02:19:12.008Z,73.01
2022-11-10T02:20:33.717Z,72.81
2022-11-10T02:21:58.888Z,72.45
2022-11-10T02:26:50.156Z,72.36
2022-11-10T02:28:22.146Z,72.39
2022-11-10T02:30:02.565Z,71.97
2022-11-10T02:31:23.453Z,72.09
2022-11-10T02:32:46.391Z,72.06
2022-11-10T02:34:06.947Z,72.01
2022-11-10T02:35:32.492Z,71.80
2022-11-10T02:36:56.341Z,71.42
2022-11-10T02:38:19.179Z,71.70
2022-11-10T02:39:40.236Z,71.30
2022-11-10T02:41:08.369Z,71.09
2022-11-10T02:44:06.117Z,71.06
2022-11-10T02:45:33.302Z,70.84
2022-11-10T02:47:00.498Z,70.77
2022-11-10T02:48:31.710Z,70.73
2022-11-10T02:49:54.178Z,70.88
2022-11-10T02:51:15.906Z,71.00
2022-11-10T02:52:41.214Z,70.85
2022-11-10T02:54:06.396Z,70.41
2022-11-10T02:55:30.794Z,70.79
2022-11-10T02:56:54.774Z,70.70
2022-11-10T02:58:15.667Z,70.83
2022-11-10T02:59:42.618Z,70.99
2022-11-10T03:01:21.947Z,70.95
2022-11-10T03:04:21.119Z,71.19
2022-11-10T03:07:33.599Z,71.32
2022-11-10T03:10:51.145Z,71.26
2022-11-10T03:12:12.202Z,71.06
2022-11-10T03:13:59.052Z,71.18
2022-11-10T03:15:27.157Z,70.99
2022-11-10T03:16:49.918Z,71.12
2022-11-10T03:18:12.276Z,71.16
2022-11-10T03:19:34.148Z,70.97
2022-11-10T03:20:56.063Z,70.93
2022-11-10T03:22:18.978Z,71.19
2022-11-10T03:27:12.546Z,72.88
2022-11-10T03:35:29.279Z,72.65
2022-11-10T03:38:32.306Z,71.99
2022-11-10T03:40:03.894Z,71.84
2022-11-10T03:43:02.967Z,71.86
2022-11-10T03:48:01.814Z,71.81
2022-11-10T03:51:51.637Z,71.64
2022-11-10T03:53:22.985Z,72.29
2022-11-10T03:56:30.200Z,72.98
2022-11-10T04:05:14.964Z,74.56
2022-11-10T04:07:03.216Z,74.24
2022-11-10T04:08:42.426Z,74.64
2022-11-10T04:12:03.626Z,74.16
2022-11-10T04:13:42.579Z,73.52
2022-11-10T04:20:11.149Z,72.95
2022-11-10T04:21:37.882Z,72.25
2022-11-10T04:23:16.495Z,71.89
2022-11-10T04:24:46.012Z,71.77
2022-11-10T04:26:31.665Z,71.73
2022-11-10T04:27:52.805Z,71.94
2022-11-10T04:29:15.271Z,72.25
2022-11-10T04:30:36.534Z,72.34
2022-11-10T04:32:04.316Z,72.21
2022-11-10T04:33:29.246Z,72.24
2022-11-10T04:34:54.382Z,72.44
2022-11-10T04:36:17.137Z,72.18
2022-11-10T04:37:42.165Z,72.56
2022-11-10T04:42:12.458Z,73.19
2022-11-10T04:43:34.060Z,73.01
2022-11-10T04:44:54.962Z,72.39
2022-11-10T04:46:26.850Z,72.56
2022-11-10T04:47:47.922Z,72.89
2022-11-10T04:49:08.408Z,72.62
2022-11-10T04:50:30.673Z,72.71
2022-11-10T04:51:51.721Z,72.83
2022-11-10T04:53:20.812Z,72.79
2022-11-10T04:54:44.183Z,72.67
2022-11-10T04:57:38.963Z,72.04
2022-11-10T04:59:02.721Z,71.84
2022-11-10T05:00:26.631Z,72.35
2022-11-10T05:01:50.981Z,72.48
2022-11-10T05:06:24.636Z,73.70
2022-11-10T05:09:26.663Z,73.32
2022-11-10T05:10:48.756Z,72.78
2022-11-10T05:13:50.187Z,72.33
2022-11-10T05:15:11.141Z,71.94
2022-11-10T05:16:31.552Z,71.67
2022-11-10T05:17:52.926Z,71.81
2022-11-10T05:19:14.888Z,71.84
2022-11-10T05:20:37.075Z,72.34
2022-11-10T05:22:01.583Z,72.99
2022-11-10T05:23:41.700Z,73.47
2022-11-10T05:25:02.978Z,74.16
2022-11-10T05:26:26.461Z,74.95
2022-11-10T05:27:47.056Z,75.15
2022-11-10T05:29:13.806Z,74.91
2022-11-10T05:33:53.057Z,74.49
2022-11-10T05:35:14.783Z,74.94
2022-11-10T05:36:38.438Z,75.00
2022-11-10T05:38:01.646Z,75.01
2022-11-10T05:39:25.100Z,74.91
2022-11-10T05:40:49.752Z,74.55
2022-11-10T05:43:46.363Z,74.53
2022-11-10T05:45:10.889Z,74.04
2022-11-10T05:48:18.524Z,73.64
2022-11-10T05:49:43.951Z,73.78
2022-11-10T05:51:07.278Z,73.24
2022-11-10T05:52:31.761Z,73.38
2022-11-10T05:53:55.876Z,73.18
2022-11-10T06:00:24.472Z,72.48
2022-11-10T06:03:27.961Z,72.14
2022-11-10T06:06:29.955Z,72.11
2022-11-10T06:07:52.950Z,71.83
2022-11-10T06:09:13.550Z,71.63
2022-11-10T06:10:35.915Z,72.19
2022-11-10T06:12:14.527Z,72.25
2022-11-10T06:13:37.060Z,72.19
2022-11-10T06:15:02.390Z,71.96
2022-11-10T06:19:45.799Z,71.24
2022-11-10T06:21:08.539Z,71.25
2022-11-10T06:22:30.409Z,70.90
2022-11-10T06:25:47.020Z,71.15
2022-11-10T06:27:09.901Z,71.30
2022-11-10T06:28:30.421Z,71.20
2022-11-10T06:29:50.504Z,71.18
2022-11-10T06:31:13.682Z,71.44
2022-11-10T11:15:59.234Z,42.31
2022-11-10T11:35:19.139Z,44.04
2022-11-10T11:36:48.900Z,44.81
2022-11-10T13:08:34.169Z,44.21
2022-11-10T14:35:21.602Z,46.83
2022-11-10T15:13:27.607Z,48.87
2022-11-10T15:14:48.253Z,49.00
2022-11-10T15:53:45.706Z,52.47
2022-11-10T15:58:35.167Z,52.53
2022-11-10T16:34:08.900Z,54.60
2022-11-10T16:35:29.318Z,54.46
2022-11-10T16:36:51.115Z,54.49
2022-11-10T16:38:21.681Z,54.63
2022-11-10T16:39:42.064Z,54.99
2022-11-10T16:41:02.975Z,54.87
2022-11-10T16:42:27.421Z,55.13
2022-11-10T16:43:49.347Z,55.29
2022-11-10T16:45:22.660Z,55.47
2022-11-10T16:46:42.978Z,55.08
2022-11-10T16:48:03.177Z,55.88
2022-11-10T16:49:33.149Z,55.97
2022-11-10T16:50:56.301Z,56.23
2022-11-10T16:52:17.516Z,56.25
2022-11-10T16:53:38.640Z,56.36
2022-11-10T16:54:59.489Z,56.41
2022-11-10T16:56:21.644Z,56.35
2022-11-10T16:57:42.016Z,56.44
2022-11-10T16:59:03.389Z,56.45
2022-11-10T17:00:24.314Z,56.50
2022-11-10T17:01:44.827Z,56.59
2022-11-10T17:03:08.195Z,56.47
2022-11-10T17:04:29.653Z,56.20
2022-11-10T17:05:50.468Z,55.84
2022-11-10T17:07:13.696Z,56.54
2022-11-10T17:08:34.924Z,56.33
2022-11-10T17:09:58.488Z,56.36
2022-11-10T17:11:19.812Z,56.44
2022-11-10T17:12:40.948Z,56.45
2022-11-10T17:14:01.991Z,56.71
2022-11-10T17:15:23.338Z,56.74
2022-11-10T17:16:48.208Z,56.22
2022-11-10T17:18:10.501Z,56.86
2022-11-10T17:19:30.971Z,56.94
2022-11-10T17:20:51.767Z,56.51
2022-11-10T17:22:13.286Z,56.86
2022-11-10T17:23:33.947Z,57.21
2022-11-10T17:24:55.408Z,57.45
2022-11-10T17:26:16.348Z,57.60
2022-11-10T17:27:38.063Z,57.60
2022-11-10T17:28:58.813Z,57.21
2022-11-10T17:30:21.432Z,57.09
2022-11-10T17:31:42.421Z,56.79
2022-11-10T17:33:05.397Z,56.92
2022-11-10T17:34:31.591Z,56.95
2022-11-10T17:35:52.613Z,57.31
2022-11-10T17:37:14.952Z,57.69
2022-11-10T17:38:57.125Z,57.74
2022-11-10T17:40:18.942Z,57.29
2022-11-10T17:41:39.784Z,57.73
2022-11-10T17:43:00.344Z,57.82
2022-11-10T17:44:21.160Z,57.63
2022-11-10T17:45:42.020Z,58.38
2022-11-10T17:47:02.613Z,58.04
2022-11-10T17:48:25.512Z,58.27
2022-11-10T17:49:46.167Z,58.36
2022-11-10T17:51:09.252Z,58.56
2022-11-10T17:52:31.496Z,58.80
2022-11-10T17:53:54.457Z,58.53
2022-11-10T17:55:16.700Z,59.05
2022-11-10T17:56:37.595Z,58.78
2022-11-10T17:57:58.693Z,58.59
2022-11-10T17:59:18.970Z,59.14
2022-11-10T18:00:39.704Z,58.89
2022-11-10T18:02:01.789Z,58.64
2022-11-10T18:03:22.611Z,58.86
2022-11-10T18:04:45.938Z,58.37
2022-11-10T18:06:06.730Z,58.97
2022-11-10T18:07:27.112Z,58.76
2022-11-10T18:08:47.871Z,59.32
2022-11-10T18:10:13.113Z,59.03
2022-11-10T18:11:36.438Z,59.04
2022-11-10T18:12:59.873Z,59.28
2022-11-10T18:14:20.288Z,60.09
2022-11-10T18:15:47.269Z,60.31
2022-11-10T18:17:07.745Z,59.84
2022-11-10T18:18:30.998Z,60.04
2022-11-10T18:19:55.723Z,60.54
2022-11-10T18:21:18.523Z,60.74
2022-11-10T18:22:41.311Z,60.18
2022-11-10T18:24:04.903Z,60.72
2022-11-10T18:25:25.306Z,60.83
2022-11-10T18:26:47.848Z,60.15
2022-11-10T18:28:08.989Z,59.93
2022-11-10T18:29:31.779Z,60.43
2022-11-10T18:30:52.471Z,60.32
2022-11-10T18:32:15.890Z,60.16
2022-11-10T18:33:37.286Z,60.00
2022-11-10T18:35:00.309Z,59.93
2022-11-10T18:36:22.834Z,60.44
2022-11-10T18:37:43.723Z,60.84
2022-11-10T18:39:04.539Z,60.61
2022-11-10T18:40:25.217Z,60.64
2022-11-10T18:41:56.259Z,60.64
2022-11-10T18:43:19.979Z,61.27
2022-11-10T18:44:41.532Z,61.10
2022-11-10T18:46:04.025Z,61.30
2022-11-10T18:47:24.443Z,61.38
2022-11-10T18:48:51.103Z,61.87
2022-11-10T18:50:11.486Z,61.70
2022-11-10T18:51:32.455Z,61.43
2022-11-10T18:52:54.998Z,62.09
2022-11-10T18:54:16.713Z,61.96
2022-11-10T18:55:41.743Z,62.38
2022-11-10T18:57:07.380Z,62.46
2022-11-10T18:58:28.154Z,62.48
2022-11-10T18:59:49.642Z,62.67
2022-11-10T19:01:11.044Z,62.22
2022-11-10T19:02:31.506Z,62.49
2022-11-10T19:03:51.745Z,62.42
2022-11-10T19:05:13.821Z,62.57
2022-11-10T19:06:39.756Z,62.68
2022-11-10T19:08:00.112Z,62.80
2022-11-10T19:09:20.333Z,62.65
2022-11-10T19:10:43.682Z,62.79
2022-11-10T19:12:04.516Z,63.00
2022-11-10T19:13:26.651Z,62.75
2022-11-10T19:14:47.613Z,62.66
2022-11-10T19:16:12.150Z,62.60
2022-11-10T19:17:34.165Z,62.66
2022-11-10T19:18:55.008Z,62.67
2022-11-10T19:20:20.424Z,62.57
2022-11-10T19:21:40.946Z,62.54
2022-11-10T19:23:01.062Z,62.38
2022-11-10T19:24:27.724Z,62.61
2022-11-10T19:25:48.599Z,62.44
2022-11-10T19:27:09.923Z,62.60
2022-11-10T19:28:30.579Z,62.81
2022-11-10T19:29:53.438Z,63.00
2022-11-10T19:31:15.749Z,63.05
2022-11-10T19:32:35.984Z,63.08
2022-11-10T19:33:56.590Z,62.84
2022-11-10T19:35:23.298Z,62.83
2022-11-10T19:36:43.929Z,62.63
2022-11-10T19:38:05.209Z,62.66
2022-11-10T19:39:27.072Z,62.72
2022-11-10T19:40:47.922Z,62.32
2022-11-10T19:42:08.747Z,62.43
2022-11-10T19:43:33.379Z,62.34
2022-11-10T19:44:55.118Z,62.21
2022-11-10T19:46:20.407Z,62.14
2022-11-10T19:47:41.827Z,62.38
2022-11-10T19:49:03.585Z,62.41
2022-11-10T19:50:25.910Z,62.32
2022-11-10T19:53:20.438Z,61.84
2022-11-10T19:54:41.150Z,62.03
2022-11-10T19:57:41.133Z,61.85
2022-11-10T19:59:01.885Z,61.77
2022-11-10T20:00:27.079Z,62.04
2022-11-10T20:01:52.005Z,62.03
2022-11-10T20:03:16.220Z,62.13
2022-11-10T20:06:34.621Z,62.31
2022-11-10T20:08:16.256Z,62.01
2022-11-10T20:09:40.213Z,62.00
2022-11-10T20:11:03.021Z,61.94
2022-11-10T20:12:24.058Z,62.20
2022-11-10T20:13:53.302Z,62.33
2022-11-10T20:15:17.106Z,62.12
2022-11-10T20:16:41.024Z,62.02
2022-11-10T20:18:01.911Z,61.98
2022-11-10T20:19:22.728Z,61.59
2022-11-10T20:20:43.076Z,61.81
2022-11-10T20:22:03.379Z,61.92
2022-11-10T20:23:24.348Z,62.32
2022-11-10T20:24:50.831Z,61.78
2022-11-10T20:26:13.141Z,62.88
2022-11-10T20:29:13.079Z,63.40
2022-11-10T20:30:35.001Z,63.32
2022-11-10T20:31:56.311Z,63.17
2022-11-10T20:33:18.182Z,63.26
2022-11-10T20:34:42.817Z,63.44
2022-11-10T20:36:09.067Z,63.60
2022-11-10T20:37:32.210Z,63.40
2022-11-10T20:38:55.834Z,63.49
2022-11-10T20:40:42.906Z,63.50
2022-11-10T20:42:00.828Z,63.25
2022-11-10T20:43:24.488Z,63.03
2022-11-10T20:44:45.882Z,63.12
2022-11-10T20:46:07.738Z,63.12
2022-11-10T20:47:31.615Z,63.53
2022-11-10T20:48:58.011Z,63.41
2022-11-10T20:50:24.146Z,63.04
2022-11-10T20:51:44.787Z,63.22
2022-11-10T20:53:06.468Z,62.89
2022-11-10T20:54:27.459Z,63.38
2022-11-10T20:55:53.979Z,63.34
2022-11-10T20:57:18.387Z,63.41
2022-11-10T20:58:39.406Z,63.32
2022-11-10T21:00:04.401Z,63.35
2022-11-10T21:01:25.966Z,63.35
2022-11-10T21:02:47.663Z,63.43
2022-11-10T21:04:17.354Z,63.53
2022-11-10T21:05:39.722Z,63.57
2022-11-10T21:07:00.297Z,63.53
2022-11-10T21:08:23.283Z,63.49
2022-11-10T21:09:43.725Z,63.50
2022-11-10T21:11:08.304Z,63.58
2022-11-10T21:12:47.410Z,63.53
2022-11-10T21:14:09.318Z,63.37
2022-11-10T21:15:29.313Z,63.41
2022-11-10T21:16:57.783Z,63.08
2022-11-10T21:18:19.194Z,63.27
2022-11-10T21:19:40.123Z,62.96
2022-11-10T21:21:04.324Z,62.92
2022-11-10T21:22:24.375Z,63.25
2022-11-10T21:23:47.117Z,63.15
2022-11-10T21:25:09.107Z,63.51
2022-11-10T21:26:39.041Z,63.33
2022-11-10T21:28:00.301Z,63.29
2022-11-10T21:29:24.108Z,63.00
2022-11-10T21:30:47.586Z,63.20
2022-11-10T21:32:10.613Z,63.09
2022-11-10T21:33:34.503Z,63.37
2022-11-10T21:35:03.252Z,63.26
2022-11-10T21:36:29.385Z,63.00
2022-11-10T21:37:50.798Z,63.12
2022-11-10T21:39:11.126Z,63.00
2022-11-10T21:40:34.941Z,63.07
2022-11-10T21:41:55.605Z,62.75
2022-11-10T21:43:19.875Z,62.88
2022-11-10T21:44:46.228Z,62.64
2022-11-10T21:46:07.223Z,62.46
2022-11-10T21:47:27.882Z,62.44
2022-11-10T21:48:48.883Z,62.66
2022-11-10T21:50:10.821Z,62.69
2022-11-10T21:51:31.315Z,62.82
2022-11-10T21:52:51.788Z,62.84
2022-11-10T21:54:12.593Z,62.65
2022-11-10T21:55:33.388Z,62.81
2022-11-10T21:58:35.283Z,62.79
2022-11-10T21:59:57.687Z,62.91
2022-11-10T22:01:24.968Z,62.67
2022-11-10T22:02:49.373Z,62.71
2022-11-10T22:04:15.615Z,62.70
2022-11-10T22:05:37.212Z,62.90
2022-11-10T22:07:23.984Z,62.77
2022-11-10T22:08:44.787Z,62.62
2022-11-10T22:10:23.310Z,62.41
2022-11-10T22:12:01.727Z,62.68
2022-11-10T22:13:40.494Z,62.73
2022-11-10T22:15:19.063Z,62.50
2022-11-10T22:17:00.596Z,62.54
2022-11-10T22:18:39.697Z,62.31
2022-11-10T22:19:59.751Z,62.51
2022-11-10T22:21:19.765Z,62.38
2022-11-10T22:22:39.551Z,62.41
2022-11-10T22:24:18.051Z,62.65
2022-11-10T22:25:37.995Z,62.49
2022-11-10T22:27:01.367Z,62.60
2022-11-10T22:28:21.063Z,62.37
2022-11-10T22:29:41.017Z,62.32
2022-11-10T22:31:06.690Z,62.62
2022-11-10T22:32:26.538Z,62.46
2022-11-10T22:33:46.414Z,62.57
2022-11-10T22:35:06.589Z,62.62
2022-11-10T22:36:26.702Z,62.62
2022-11-10T22:37:46.886Z,62.53
2022-11-10T22:39:07.339Z,62.26
2022-11-10T22:41:05.562Z,62.08
2022-11-10T22:42:43.945Z,62.26
2022-11-10T22:44:04.180Z,62.16
2022-11-10T22:45:24.323Z,62.11
2022-11-10T22:46:48.101Z,62.18
2022-11-10T22:48:26.378Z,62.60
2022-11-10T22:49:46.156Z,62.40
2022-11-10T22:51:06.369Z,62.46
2022-11-10T22:52:26.520Z,62.64
2022-11-10T22:53:46.731Z,63.33
2022-11-10T22:55:07.046Z,63.61
2022-11-10T22:56:27.179Z,63.52
2022-11-10T22:57:46.896Z,63.23
2022-11-10T22:59:06.979Z,62.89
2022-11-10T23:00:27.095Z,63.44
2022-11-10T23:01:47.371Z,64.10
2022-11-10T23:03:07.607Z,63.83
2022-11-10T23:04:27.712Z,63.29
2022-11-10T23:05:56.268Z,63.46
2022-11-10T23:07:16.743Z,63.02
2022-11-10T23:08:37.352Z,62.92
2022-11-10T23:09:57.599Z,63.12
2022-11-10T23:11:19.497Z,63.03
2022-11-10T23:12:39.508Z,62.62
2022-11-10T23:13:59.744Z,62.69
2022-11-10T23:15:20.207Z,62.87
2022-11-10T23:16:40.415Z,62.61
2022-11-10T23:18:06.305Z,62.85
2022-11-10T23:19:26.804Z,62.86
2022-11-10T23:20:46.914Z,62.83
2022-11-10T23:22:06.795Z,62.78
2022-11-10T23:23:27.037Z,62.83
2022-11-10T23:24:46.875Z,62.91
2022-11-10T23:26:08.113Z,62.91
2022-11-10T23:27:28.225Z,62.77
2022-11-10T23:28:48.253Z,63.09
2022-11-10T23:30:08.307Z,62.81
2022-11-10T23:31:28.658Z,63.13
2022-11-10T23:32:48.717Z,62.98
2022-11-10T23:34:08.867Z,62.58
2022-11-10T23:35:28.814Z,62.40
2022-11-10T23:36:48.981Z,62.61
2022-11-10T23:38:09.153Z,62.42
2022-11-10T23:39:29.024Z,62.60
2022-11-10T23:40:49.153Z,62.44
2022-11-10T23:42:09.432Z,62.46
2022-11-10T23:43:29.305Z,62.84
2022-11-10T23:44:49.385Z,62.57
2022-11-10T23:46:09.913Z,62.87
2022-11-10T23:47:29.902Z,63.09
2022-11-10T23:48:49.927Z,62.79
2022-11-10T23:50:10.180Z,62.61
2022-11-10T23:51:30.282Z,62.79
2022-11-10T23:52:50.511Z,62.80
2022-11-10T23:54:10.715Z,62.49
2022-11-10T23:55:30.921Z,62.43
2022-11-10T23:56:51.139Z,62.53
2022-11-10T23:58:10.998Z,62.53
2022-11-10T23:59:30.834Z,62.56
